createdAt,value
2022-11-06T00:00:24.421Z,34.40
2022-11-06T00:02:27.777Z,34.00
2022-11-06T00:04:30.880Z,37.00
2022-11-06T00:06:48.417Z,29.10
2022-11-06T00:08:51.422Z,25.02
2022-11-06T00:10:54.424Z,24.50
2022-11-06T00:12:57.575Z,24.45
2022-11-06T00:15:01.958Z,17.23
2022-11-06T00:17:04.893Z,29.80
2022-11-06T00:19:08.611Z,31.90
2022-11-06T00:21:13.131Z,25.50
2022-11-06T00:23:16.130Z,18.75
2022-11-06T00:25:19.365Z,20.02
2022-11-06T00:27:22.284Z,32.00
2022-11-06T00:29:25.683Z,46.70
2022-11-06T00:31:32.857Z,19.80
2022-11-06T00:33:36.225Z,21.50
2022-11-06T00:35:40.390Z,15.10
2022-11-06T00:37:43.381Z,30.80
2022-11-06T00:39:46.358Z,30.55
2022-11-06T00:41:49.321Z,23.60
2022-11-06T00:43:53.735Z,44.75
2022-11-06T00:46:02.226Z,43.28
2022-11-06T00:48:07.182Z,67.63
2022-11-06T00:50:10.862Z,23.30
2022-11-06T00:52:14.274Z,31.55
2022-11-06T00:54:17.270Z,22.13
2022-11-06T00:56:20.981Z,24.95
2022-11-06T00:58:23.969Z,23.92
2022-11-06T01:00:26.961Z,22.92
2022-11-06T01:02:30.235Z,39.10
2022-11-06T01:04:34.832Z,58.50
2022-11-06T01:06:39.583Z,34.80
2022-11-06T01:08:42.892Z,42.10
2022-11-06T01:10:45.813Z,46.72
2022-11-06T01:12:49.101Z,43.63
2022-11-06T01:14:52.139Z,36.22
2022-11-06T01:16:55.149Z,55.47
2022-11-06T01:18:59.304Z,41.95
2022-11-06T01:21:06.490Z,39.65
2022-11-06T01:23:09.612Z,54.83
2022-11-06T01:25:12.518Z,13.45
2022-11-06T01:27:31.106Z,16.65
2022-11-06T01:29:34.410Z,34.78
2022-11-06T01:31:37.472Z,36.80
2022-11-06T01:33:40.928Z,54.35
2022-11-06T01:35:45.904Z,73.97
2022-11-06T01:37:50.457Z,56.58
2022-11-06T01:39:53.427Z,56.05
2022-11-06T01:41:56.368Z,40.33
2022-11-06T01:44:00.971Z,56.35
2022-11-06T01:46:03.977Z,40.95
2022-11-06T01:48:07.086Z,42.30
2022-11-06T01:50:11.322Z,51.50
2022-11-06T01:52:16.025Z,42.78
2022-11-06T01:54:21.352Z,66.38
2022-11-06T01:56:24.645Z,63.63
2022-11-06T01:58:29.840Z,66.43
2022-11-06T02:00:32.881Z,65.45
2022-11-06T02:02:36.517Z,61.40
2022-11-06T02:04:42.603Z,123.45
2022-11-06T02:06:47.010Z,32.60
2022-11-06T02:08:50.617Z,50.30
2022-11-06T02:10:55.665Z,37.83
2022-11-06T02:13:16.265Z,151.85
2022-11-06T02:15:27.169Z,40.55
2022-11-06T02:17:39.164Z,46.67
2022-11-06T02:19:55.543Z,34.08
2022-11-06T02:22:22.755Z,47.88
2022-11-06T02:24:37.029Z,72.53
2022-11-06T02:26:53.362Z,77.45
2022-11-06T02:28:59.291Z,41.47
2022-11-06T02:31:04.905Z,54.45
2022-11-06T02:33:11.295Z,67.75
2022-11-06T02:35:19.531Z,76.45
2022-11-06T02:37:26.663Z,98.97
2022-11-06T02:39:31.833Z,46.20
2022-11-06T02:41:38.051Z,75.63
2022-11-06T02:43:45.059Z,58.85
2022-11-06T02:45:51.977Z,72.35
2022-11-06T02:47:57.071Z,41.03
2022-11-06T02:50:05.505Z,47.80
2022-11-06T02:52:12.232Z,47.80
2022-11-06T02:54:16.933Z,26.15
2022-11-06T02:56:24.032Z,28.75
2022-11-06T02:58:31.590Z,34.20
2022-11-06T03:00:37.090Z,44.55
2022-11-06T03:02:45.030Z,15.18
2022-11-06T03:04:51.755Z,22.05
2022-11-06T03:06:58.945Z,28.38
2022-11-06T03:09:06.625Z,28.35
2022-11-06T03:11:16.137Z,23.48
2022-11-06T03:13:22.099Z,23.42
2022-11-06T03:15:30.098Z,41.85
2022-11-06T03:17:41.421Z,25.65
2022-11-06T03:19:49.955Z,11.77
2022-11-06T03:21:58.031Z,29.80
2022-11-06T03:24:05.683Z,12.77
2022-11-06T03:26:14.929Z,18.98
2022-11-06T03:28:25.060Z,35.05
2022-11-06T03:30:28.933Z,31.30
2022-11-06T03:32:35.969Z,28.65
2022-11-06T03:34:45.085Z,46.90
2022-11-06T03:36:51.111Z,24.48
2022-11-06T03:38:57.781Z,26.63
2022-11-06T03:41:03.763Z,12.27
2022-11-06T03:43:09.804Z,21.85
2022-11-06T03:45:16.790Z,41.22
2022-11-06T03:47:23.566Z,17.50
2022-11-06T03:49:30.896Z,13.38
2022-11-06T03:51:40.293Z,17.92
2022-11-06T03:53:49.320Z,16.77
2022-11-06T03:55:56.091Z,20.40
2022-11-06T03:58:03.845Z,35.65
2022-11-06T04:00:09.222Z,18.42
2022-11-06T04:02:19.117Z,21.70
2022-11-06T04:04:26.018Z,30.92
2022-11-06T04:06:33.560Z,31.60
2022-11-06T04:08:56.929Z,18.13
2022-11-06T04:11:19.983Z,18.80
2022-11-06T04:13:41.412Z,21.30
2022-11-06T04:15:50.069Z,28.90
2022-11-06T04:17:53.511Z,30.40
2022-11-06T04:19:59.568Z,13.85
2022-11-06T04:22:22.931Z,33.08
2022-11-06T04:24:52.895Z,22.40
2022-11-06T04:27:16.541Z,42.40
2022-11-06T04:29:28.016Z,19.92
2022-11-06T04:31:37.894Z,21.60
2022-11-06T04:33:47.386Z,31.95
2022-11-06T04:35:56.291Z,43.20
2022-11-06T04:38:04.259Z,25.02
2022-11-06T04:40:12.825Z,17.35
2022-11-06T04:42:19.952Z,24.50
2022-11-06T04:44:28.543Z,13.23
2022-11-06T04:46:34.938Z,28.60
2022-11-06T04:48:38.612Z,22.88
2022-11-06T04:50:45.872Z,31.08
2022-11-06T04:52:49.362Z,53.30
2022-11-06T04:54:52.977Z,15.05
2022-11-06T04:57:00.490Z,24.30
2022-11-06T04:59:03.615Z,19.38
2022-11-06T05:01:07.238Z,19.25
2022-11-06T05:03:10.361Z,31.25
2022-11-06T05:05:13.542Z,11.27
2022-11-06T05:07:17.853Z,14.10
2022-11-06T05:09:21.753Z,29.92
2022-11-06T05:11:24.766Z,41.35
2022-11-06T05:13:29.233Z,16.42
2022-11-06T05:15:32.327Z,37.97
2022-11-06T05:17:36.594Z,59.53
2022-11-06T05:19:39.896Z,94.70
2022-11-06T05:22:00.172Z,33.38
2022-11-06T05:24:03.389Z,56.38
2022-11-06T05:26:06.708Z,55.78
2022-11-06T05:28:10.561Z,74.05
2022-11-06T05:30:15.443Z,13.88
2022-11-06T05:32:18.630Z,30.75
2022-11-06T05:34:21.895Z,20.98
2022-11-06T05:36:24.978Z,25.08
2022-11-06T05:38:27.905Z,41.38
2022-11-06T05:40:31.508Z,15.50
2022-11-06T05:42:34.428Z,36.08
2022-11-06T05:44:37.685Z,78.85
2022-11-06T05:46:48.636Z,62.72
2022-11-06T05:48:52.831Z,45.08
2022-11-06T05:51:01.356Z,15.82
2022-11-06T05:53:04.705Z,59.42
2022-11-06T05:55:14.180Z,44.38
2022-11-06T05:57:18.160Z,22.48
2022-11-06T05:59:21.225Z,35.42
2022-11-06T06:01:24.291Z,33.13
2022-11-06T06:03:29.100Z,59.28
2022-11-06T06:05:32.229Z,116.55
2022-11-06T06:07:35.186Z,53.65
2022-11-06T06:09:38.150Z,56.08
2022-11-06T06:11:41.486Z,82.30
2022-11-06T06:13:44.528Z,74.82
2022-11-06T06:15:47.475Z,80.28
2022-11-06T06:17:50.816Z,116.90
2022-11-06T06:19:55.138Z,133.80
2022-11-06T06:21:58.217Z,176.90
2022-11-06T06:24:01.431Z,107.93
2022-11-06T06:26:05.050Z,75.93
2022-11-06T06:28:08.560Z,93.78
2022-11-06T06:30:12.973Z,57.17
2022-11-06T06:32:15.883Z,63.10
2022-11-06T06:34:19.014Z,97.90
2022-11-06T06:36:23.487Z,50.45
2022-11-06T06:38:26.937Z,64.45
2022-11-06T06:40:30.766Z,47.30
2022-11-06T06:42:34.075Z,57.90
2022-11-06T06:44:37.096Z,68.07
2022-11-06T06:46:40.163Z,61.60
2022-11-06T06:48:43.199Z,88.78
2022-11-06T06:50:46.209Z,33.90
2022-11-06T06:52:50.825Z,30.73
2022-11-06T06:54:54.251Z,56.60
2022-11-06T06:56:57.274Z,54.55
2022-11-06T06:59:00.235Z,31.80
2022-11-06T07:01:04.364Z,43.35
2022-11-06T07:03:07.464Z,39.90
2022-11-06T07:05:10.611Z,75.40
2022-11-06T07:07:13.726Z,42.05
2022-11-06T07:09:19.269Z,42.13
2022-11-06T07:11:22.642Z,50.70
2022-11-06T07:13:25.843Z,53.55
2022-11-06T07:15:29.021Z,80.25
2022-11-06T07:17:32.111Z,44.35
2022-11-06T07:19:35.471Z,45.53
2022-11-06T07:21:38.630Z,65.85
2022-11-06T07:23:42.201Z,50.28
2022-11-06T07:25:53.196Z,53.90
2022-11-06T07:28:01.649Z,65.95
2022-11-06T07:30:06.570Z,46.30
2022-11-06T07:32:10.224Z,27.20
2022-11-06T07:34:13.600Z,17.42
2022-11-06T07:36:16.717Z,19.63
2022-11-06T07:38:19.822Z,24.45
2022-11-06T07:40:22.848Z,15.20
2022-11-06T07:42:27.204Z,10.23
2022-11-06T07:44:38.117Z,27.15
2022-11-06T07:46:41.165Z,21.85
2022-11-06T07:48:44.172Z,30.20
2022-11-06T07:50:47.127Z,55.67
2022-11-06T07:52:50.370Z,29.48
2022-11-06T07:54:53.346Z,45.47
2022-11-06T07:56:56.279Z,35.55
2022-11-06T07:59:00.857Z,18.38
2022-11-06T08:01:04.404Z,37.63
2022-11-06T08:03:07.601Z,17.40
2022-11-06T08:05:10.616Z,19.10
2022-11-06T08:07:13.673Z,12.77
2022-11-06T08:09:16.669Z,25.23
2022-11-06T08:11:20.115Z,25.13
2022-11-06T08:13:23.117Z,40.78
2022-11-06T08:15:27.604Z,43.67
2022-11-06T08:17:31.222Z,42.15
2022-11-06T08:19:34.281Z,51.08
2022-11-06T08:21:37.409Z,24.45
2022-11-06T08:23:40.439Z,20.90
2022-11-06T08:25:43.474Z,52.40
2022-11-06T08:27:46.527Z,22.83
2022-11-06T08:29:49.618Z,16.02
2022-11-06T08:31:54.095Z,27.15
2022-11-06T08:33:57.186Z,70.03
2022-11-06T08:36:02.314Z,62.03
2022-11-06T08:38:05.733Z,11.57
2022-11-06T08:40:10.160Z,15.32
2022-11-06T08:42:13.973Z,8.75
2022-11-06T08:44:17.247Z,8.20
2022-11-06T08:46:20.256Z,8.80
2022-11-06T08:48:24.666Z,9.82
2022-11-06T08:50:27.784Z,8.45
2022-11-06T08:52:34.071Z,10.18
2022-11-06T08:54:37.422Z,10.23
2022-11-06T08:56:40.913Z,12.32
2022-11-06T08:58:43.941Z,9.95
2022-11-06T09:00:47.313Z,12.02
2022-11-06T09:02:50.570Z,9.23
2022-11-06T09:04:54.956Z,10.57
2022-11-06T09:06:58.634Z,10.68
2022-11-06T09:09:02.710Z,11.98
2022-11-06T09:11:08.429Z,10.50
2022-11-06T09:13:12.832Z,10.20
2022-11-06T09:15:16.869Z,11.77
2022-11-06T09:17:23.822Z,11.30
2022-11-06T09:19:27.230Z,10.00
2022-11-06T09:21:32.730Z,10.38
2022-11-06T09:23:35.992Z,11.80
2022-11-06T09:25:39.120Z,10.25
2022-11-06T09:27:43.772Z,10.80
2022-11-06T09:29:48.049Z,13.27
2022-11-06T09:31:51.217Z,10.37
2022-11-06T09:33:54.243Z,12.30
2022-11-06T09:35:57.592Z,16.00
2022-11-06T09:38:06.012Z,25.07
2022-11-06T09:40:16.910Z,16.37
2022-11-06T09:42:27.182Z,26.00
2022-11-06T09:44:45.270Z,10.57
2022-11-06T09:46:48.631Z,7.97
2022-11-06T09:48:56.872Z,6.77
2022-11-06T09:51:04.961Z,7.03
2022-11-06T09:53:15.595Z,6.70
2022-11-06T09:55:22.381Z,7.50
2022-11-06T09:57:30.151Z,6.43
2022-11-06T09:59:35.676Z,6.40
2022-11-06T10:01:43.773Z,9.70
2022-11-06T10:03:50.794Z,6.10
2022-11-06T10:05:54.451Z,6.60
2022-11-06T10:08:00.030Z,6.33
2022-11-06T10:10:06.976Z,6.60
2022-11-06T10:12:17.505Z,6.20
2022-11-06T10:14:29.765Z,5.97
2022-11-06T10:16:39.139Z,5.70
2022-11-06T10:18:52.417Z,6.53
2022-11-06T10:20:58.538Z,6.53
2022-11-06T10:23:06.477Z,9.80
2022-11-06T10:25:21.984Z,6.83
2022-11-06T10:27:29.705Z,6.03
2022-11-06T10:29:42.131Z,5.83
2022-11-06T10:31:53.506Z,5.07
2022-11-06T10:33:59.026Z,7.57
2022-11-06T10:36:07.327Z,5.53
2022-11-06T10:38:13.914Z,6.50
2022-11-06T10:40:21.169Z,6.80
2022-11-06T10:42:35.145Z,10.30
2022-11-06T10:44:43.603Z,6.83
2022-11-06T10:46:50.391Z,5.60
2022-11-06T10:48:58.532Z,6.93
2022-11-06T10:51:12.418Z,6.97
2022-11-06T10:53:22.835Z,5.50
2022-11-06T10:56:05.519Z,5.40
2022-11-06T10:58:15.404Z,4.83
2022-11-06T11:00:18.998Z,5.27
2022-11-06T11:02:27.651Z,4.57
2022-11-06T11:04:32.191Z,3.70
2022-11-06T11:06:35.412Z,4.27
2022-11-06T11:08:41.989Z,4.07
2022-11-06T11:11:00.761Z,5.30
2022-11-06T11:13:21.195Z,4.40
2022-11-06T11:15:25.438Z,3.43
2022-11-06T11:17:28.457Z,4.47
2022-11-06T11:19:36.457Z,3.80
2022-11-06T11:21:42.571Z,4.10
2022-11-06T11:23:45.897Z,4.40
2022-11-06T11:25:50.509Z,4.30
2022-11-06T11:27:53.647Z,3.50
2022-11-06T11:29:58.343Z,4.00
2022-11-06T11:32:03.417Z,3.97
2022-11-06T11:34:15.526Z,3.60
2022-11-06T11:36:18.639Z,4.00
2022-11-06T11:38:22.795Z,4.30
2022-11-06T11:40:36.356Z,4.00
2022-11-06T11:42:39.645Z,4.50
2022-11-06T11:44:42.734Z,3.97
2022-11-06T11:46:51.246Z,4.70
2022-11-06T11:48:56.713Z,4.37
2022-11-06T11:51:09.673Z,3.60
2022-11-06T11:53:16.012Z,3.80
2022-11-06T11:55:22.504Z,3.80
2022-11-06T11:57:26.872Z,4.03
2022-11-06T11:59:31.991Z,4.10
2022-11-06T12:01:38.791Z,4.40
2022-11-06T12:03:53.692Z,5.10
2022-11-06T12:06:05.525Z,3.77
2022-11-06T12:08:15.324Z,3.90
2022-11-06T12:10:28.879Z,3.90
2022-11-06T12:12:33.480Z,4.70
2022-11-06T12:14:37.631Z,3.97
2022-11-06T12:16:40.721Z,4.00
2022-11-06T12:18:47.166Z,4.17
2022-11-06T12:20:53.435Z,4.07
2022-11-06T12:22:57.807Z,4.07
2022-11-06T12:25:04.996Z,4.10
2022-11-06T12:27:12.713Z,3.90
2022-11-06T12:29:17.947Z,4.57
2022-11-06T12:31:24.761Z,5.17
2022-11-06T12:34:04.036Z,3.83
2022-11-06T12:36:00.035Z,4.87
2022-11-06T12:38:13.202Z,3.60
2022-11-06T12:40:25.091Z,3.67
2022-11-06T12:42:32.129Z,4.40
2022-11-06T12:44:35.148Z,3.73
2022-11-06T12:46:41.960Z,3.83
2022-11-06T12:48:54.715Z,4.70
2022-11-06T12:51:04.034Z,4.20
2022-11-06T12:53:16.527Z,4.00
2022-11-06T12:55:24.563Z,6.73
2022-11-06T12:57:33.138Z,3.87
2022-11-06T12:59:44.688Z,3.40
2022-11-06T13:01:53.963Z,5.10
2022-11-06T13:04:23.050Z,4.50
2022-11-06T13:06:50.620Z,3.90
2022-11-06T13:08:57.523Z,3.80
2022-11-06T13:11:09.775Z,3.67
2022-11-06T13:13:31.376Z,5.27
2022-11-06T13:15:38.579Z,8.00
2022-11-06T13:17:48.568Z,3.80
2022-11-06T13:19:55.205Z,4.37
2022-11-06T13:22:18.498Z,3.83
2022-11-06T13:24:27.943Z,6.10
2022-11-06T13:26:35.708Z,4.50
2022-11-06T13:28:41.664Z,4.67
2022-11-06T13:30:45.380Z,4.07
2022-11-06T13:32:58.898Z,4.60
2022-11-06T13:35:03.586Z,3.80
2022-11-06T13:37:14.111Z,5.60
2022-11-06T13:39:21.889Z,5.10
2022-11-06T13:41:27.473Z,4.37
2022-11-06T13:43:34.452Z,4.33
2022-11-06T13:45:46.659Z,4.50
2022-11-06T13:47:58.855Z,4.83
2022-11-06T13:50:05.450Z,4.97
2022-11-06T13:52:11.747Z,5.27
2022-11-06T13:54:24.709Z,5.47
2022-11-06T13:56:53.533Z,4.40
2022-11-06T13:59:34.227Z,5.30
2022-11-06T14:01:49.515Z,6.13
2022-11-06T14:04:27.031Z,5.00
2022-11-06T14:06:31.737Z,5.10
2022-11-06T14:08:40.805Z,5.70
2022-11-06T14:10:51.612Z,4.83
2022-11-06T14:12:54.781Z,17.20
2022-11-06T14:15:17.312Z,10.40
2022-11-06T14:17:22.782Z,7.10
2022-11-06T14:19:27.777Z,6.53
2022-11-06T14:21:48.952Z,25.40
2022-11-06T14:23:54.737Z,14.83
2022-11-06T14:26:01.492Z,5.70
2022-11-06T14:28:06.768Z,14.30
2022-11-06T14:30:19.733Z,8.30
2022-11-06T14:32:43.918Z,10.53
2022-11-06T14:34:47.043Z,8.70
2022-11-06T14:36:50.870Z,6.57
2022-11-06T14:38:54.385Z,5.90
2022-11-06T14:40:57.841Z,4.43
2022-11-06T14:43:02.287Z,6.30
2022-11-06T14:45:11.974Z,6.13
2022-11-06T14:47:36.378Z,4.40
2022-11-06T14:49:43.845Z,4.80
2022-11-06T14:51:59.015Z,5.00
2022-11-06T14:54:05.412Z,4.43
2022-11-06T14:56:09.882Z,5.37
2022-11-06T14:58:16.892Z,6.73
2022-11-06T15:00:48.889Z,5.20
2022-11-06T15:02:52.404Z,5.80
2022-11-06T15:04:59.338Z,5.20
2022-11-06T15:07:08.871Z,6.07
2022-11-06T15:09:15.626Z,5.90
2022-11-06T15:11:55.740Z,6.27
2022-11-06T15:14:39.070Z,5.03
2022-11-06T15:16:44.574Z,5.57
2022-11-06T15:18:47.902Z,6.00
2022-11-06T15:20:52.366Z,6.43
2022-11-06T15:23:05.573Z,7.10
2022-11-06T15:25:20.407Z,6.50
2022-11-06T15:27:27.022Z,7.03
2022-11-06T15:29:34.200Z,6.47
2022-11-06T15:31:37.692Z,7.20
2022-11-06T15:33:49.433Z,7.17
2022-11-06T15:35:57.288Z,7.57
2022-11-06T15:38:08.431Z,8.23
2022-11-06T15:40:24.110Z,8.03
2022-11-06T15:42:29.812Z,8.07
2022-11-06T15:44:38.593Z,9.83
2022-11-06T15:46:53.795Z,9.18
2022-11-06T15:49:16.250Z,10.90
2022-11-06T15:51:24.177Z,12.63
2022-11-06T15:53:29.087Z,9.97
2022-11-06T15:55:35.179Z,10.67
2022-11-06T15:57:38.295Z,12.27
2022-11-06T15:59:42.835Z,10.10
2022-11-06T16:01:48.706Z,12.47
2022-11-06T16:03:53.860Z,11.60
2022-11-06T16:05:58.620Z,11.53
2022-11-06T16:08:02.126Z,9.70
2022-11-06T16:10:06.086Z,8.87
2022-11-06T16:12:12.544Z,8.43
2022-11-06T16:14:16.586Z,8.63
2022-11-06T16:16:34.006Z,9.00
2022-11-06T16:18:41.483Z,8.60
2022-11-06T16:20:45.757Z,9.80
2022-11-06T16:22:49.026Z,9.55
2022-11-06T16:24:55.446Z,8.57
2022-11-06T16:26:58.748Z,9.23
2022-11-06T16:29:02.229Z,11.50
2022-11-06T16:31:09.344Z,10.87
2022-11-06T16:33:31.616Z,8.20
2022-11-06T16:35:36.834Z,8.77
2022-11-06T16:37:40.231Z,9.10
2022-11-06T16:39:49.404Z,9.13
2022-11-06T16:42:03.379Z,8.23
2022-11-06T16:44:30.470Z,8.65
2022-11-06T16:47:14.686Z,8.70
2022-11-06T16:49:33.166Z,9.68
2022-11-06T16:51:36.223Z,8.37
2022-11-06T16:54:00.804Z,8.57
2022-11-06T16:56:07.394Z,8.45
2022-11-06T16:58:16.251Z,9.45
2022-11-06T17:00:25.035Z,8.43
2022-11-06T17:02:32.184Z,9.10
2022-11-06T17:04:35.561Z,7.70
2022-11-06T17:06:39.196Z,7.90
2022-11-06T17:08:42.442Z,8.80
2022-11-06T17:10:46.779Z,8.13
2022-11-06T17:12:49.944Z,8.87
2022-11-06T17:14:53.226Z,8.57
2022-11-06T17:16:58.712Z,114.75
2022-11-06T17:19:03.256Z,31.60
2022-11-06T17:21:07.621Z,14.88
2022-11-06T17:23:15.798Z,9.80
2022-11-06T17:25:19.664Z,8.57
2022-11-06T17:27:22.771Z,8.05
2022-11-06T17:29:25.825Z,8.50
2022-11-06T17:31:29.086Z,7.93
2022-11-06T17:33:32.294Z,7.73
2022-11-06T17:35:37.063Z,9.40
2022-11-06T17:37:40.174Z,9.47
2022-11-06T17:39:43.366Z,13.93
2022-11-06T17:41:46.579Z,8.73
2022-11-06T17:43:49.617Z,10.93
2022-11-06T17:45:53.096Z,11.30
2022-11-06T17:47:56.243Z,9.17
2022-11-06T17:49:59.840Z,12.33
2022-11-06T17:52:03.606Z,10.67
2022-11-06T17:54:06.935Z,8.80
2022-11-06T17:56:10.157Z,7.47
2022-11-06T17:58:13.934Z,9.43
2022-11-06T18:00:18.470Z,7.73
2022-11-06T18:02:41.221Z,7.27
2022-11-06T18:04:45.052Z,19.20
2022-11-06T18:06:49.687Z,9.23
2022-11-06T18:08:58.749Z,11.30
2022-11-06T18:13:20.649Z,8.20
2022-11-06T18:15:23.735Z,8.20
2022-11-06T18:17:27.107Z,7.33
2022-11-06T18:19:30.225Z,7.43
2022-11-06T18:21:40.247Z,9.00
2022-11-06T18:32:06.144Z,8.70
2022-11-06T18:34:19.405Z,9.60
2022-11-06T18:36:25.438Z,13.57
2022-11-06T18:38:29.217Z,22.60
2022-11-06T18:40:35.066Z,16.47
2022-11-06T18:42:38.352Z,14.43
2022-11-06T18:44:42.250Z,15.50
2022-11-06T18:46:46.025Z,15.50
2022-11-06T18:48:53.055Z,20.77
2022-11-06T18:50:56.646Z,25.40
2022-11-06T18:52:59.956Z,24.87
2022-11-06T18:55:06.300Z,15.27
2022-11-06T18:57:09.657Z,12.23
2022-11-06T18:59:19.569Z,51.83
2022-11-06T19:01:24.215Z,60.90
2022-11-06T19:03:27.661Z,28.20
2022-11-06T19:05:34.452Z,52.13
2022-11-06T19:07:37.957Z,44.17
2022-11-06T19:09:41.474Z,33.70
2022-11-06T19:11:45.149Z,30.23
2022-11-06T19:13:48.964Z,31.33
2022-11-06T19:15:55.585Z,22.97
2022-11-06T19:17:59.008Z,17.10
2022-11-06T19:20:04.452Z,22.20
2022-11-06T19:22:11.500Z,16.60
2022-11-06T19:24:15.614Z,22.47
2022-11-06T19:26:31.078Z,40.60
2022-11-06T19:28:38.990Z,52.70
2022-11-06T19:30:42.709Z,61.20
2022-11-06T19:32:46.284Z,59.60
2022-11-06T19:34:49.787Z,92.30
2022-11-06T19:36:53.257Z,72.60
2022-11-06T19:38:58.658Z,78.67
2022-11-06T19:41:03.397Z,55.10
2022-11-06T19:43:08.598Z,43.73
2022-11-06T19:45:12.276Z,36.70
2022-11-06T19:47:15.622Z,37.37
2022-11-06T19:49:19.122Z,29.70
2022-11-06T19:51:22.932Z,29.23
2022-11-06T19:53:26.882Z,33.60
2022-11-06T19:55:31.805Z,36.63
2022-11-06T19:57:35.729Z,31.90
2022-11-06T19:59:39.416Z,32.03
2022-11-06T20:01:43.024Z,28.53
2022-11-06T20:03:47.714Z,30.87
2022-11-06T20:05:51.499Z,42.73
2022-11-06T20:07:55.144Z,46.13
2022-11-06T20:10:02.185Z,51.10
2022-11-06T20:12:08.403Z,46.90
2022-11-06T20:14:11.900Z,30.40
2022-11-06T20:16:16.858Z,33.77
2022-11-06T20:18:20.553Z,22.80
2022-11-06T20:20:24.246Z,28.80
2022-11-06T20:22:27.791Z,32.73
2022-11-06T20:24:31.169Z,40.00
2022-11-06T20:26:34.633Z,25.83
2022-11-06T20:28:39.333Z,22.83
2022-11-06T20:30:42.926Z,26.27
2022-11-06T20:32:46.964Z,25.40
2022-11-06T20:34:50.316Z,18.57
2022-11-06T20:36:54.433Z,14.80
2022-11-06T20:39:00.723Z,17.87
2022-11-06T20:41:05.166Z,12.77
2022-11-06T20:43:09.474Z,9.93
2022-11-06T20:45:16.099Z,17.27
2022-11-06T20:47:21.848Z,43.70
2022-11-06T20:49:25.342Z,27.13
2022-11-06T20:51:31.884Z,41.40
2022-11-06T20:53:36.042Z,79.03
2022-11-06T20:55:39.532Z,52.93
2022-11-06T20:57:43.008Z,29.63
2022-11-06T20:59:47.939Z,34.40
2022-11-06T21:01:54.161Z,32.60
2022-11-06T21:04:00.535Z,29.08
2022-11-06T21:06:05.749Z,23.87
2022-11-06T21:08:11.091Z,24.80
2022-11-06T21:10:18.152Z,16.03
2022-11-06T21:12:27.012Z,19.70
2022-11-06T21:14:30.635Z,17.97
2022-11-06T21:16:36.454Z,40.87
2022-11-06T21:18:44.738Z,20.00
2022-11-06T21:20:48.076Z,18.43
2022-11-06T21:22:54.216Z,14.60
2022-11-06T21:24:57.802Z,14.90
2022-11-06T21:27:04.044Z,18.13
2022-11-06T21:29:12.691Z,20.40
2022-11-06T21:31:17.735Z,18.80
2022-11-06T21:33:21.509Z,14.27
2022-11-06T21:35:26.631Z,11.50
2022-11-06T21:37:34.801Z,10.50
2022-11-06T21:39:38.741Z,8.63
2022-11-06T21:41:42.781Z,7.40
2022-11-06T21:43:48.174Z,6.57
2022-11-06T21:45:51.634Z,6.80
2022-11-06T21:47:55.044Z,6.10
2022-11-06T21:49:58.686Z,4.60
2022-11-06T21:52:17.531Z,5.37
2022-11-06T21:54:40.944Z,6.13
2022-11-06T21:56:44.940Z,6.43
2022-11-06T21:58:52.526Z,6.90
2022-11-06T22:00:55.957Z,6.13
2022-11-06T22:02:59.641Z,6.00
2022-11-06T22:05:03.255Z,4.90
2022-11-06T22:07:08.317Z,4.40
2022-11-06T22:09:13.359Z,11.40
2022-11-06T22:11:21.293Z,4.37
2022-11-06T22:13:26.851Z,4.70
2022-11-06T22:15:30.135Z,4.57
2022-11-06T22:17:35.452Z,4.20
2022-11-06T22:19:40.049Z,4.80
2022-11-06T22:21:43.373Z,3.33
2022-11-06T22:23:48.479Z,4.63
2022-11-06T22:25:52.004Z,4.10
2022-11-06T22:27:55.190Z,7.47
2022-11-06T22:29:58.471Z,10.50
2022-11-06T22:32:01.914Z,11.00
2022-11-06T22:34:05.631Z,11.57
2022-11-06T22:36:10.885Z,13.93
2022-11-06T22:38:15.275Z,12.80
2022-11-06T22:40:19.974Z,18.80
2022-11-06T22:42:23.734Z,14.20
2022-11-06T22:44:27.344Z,11.13
2022-11-06T22:46:31.444Z,12.90
2022-11-06T22:48:35.665Z,12.50
2022-11-06T22:50:42.099Z,12.50
2022-11-06T22:52:45.703Z,10.20
2022-11-06T22:54:49.482Z,10.47
2022-11-06T22:56:57.028Z,11.07
2022-11-06T22:59:03.159Z,11.70
2022-11-06T23:01:07.340Z,9.47
2022-11-06T23:03:18.588Z,11.13
2022-11-06T23:05:22.215Z,10.40
2022-11-06T23:07:26.259Z,10.10
2022-11-06T23:09:33.251Z,8.70
2022-11-06T23:11:36.813Z,9.60
2022-11-06T23:14:13.365Z,10.03
2022-11-06T23:20:54.206Z,12.03
2022-11-06T23:22:58.334Z,11.83
2022-11-06T23:25:01.519Z,12.70
2022-11-06T23:27:05.081Z,51.30
2022-11-06T23:29:09.540Z,24.03
2022-11-06T23:31:14.076Z,14.57
2022-11-06T23:33:17.372Z,16.07
2022-11-06T23:35:22.865Z,11.10
2022-11-06T23:37:26.875Z,13.90
2022-11-06T23:39:30.266Z,88.67
2022-11-06T23:41:45.751Z,35.87
2022-11-06T23:43:51.642Z,39.47
2022-11-06T23:45:55.125Z,24.80
2022-11-06T23:47:58.317Z,31.60
2022-11-06T23:50:02.178Z,15.50
2022-11-06T23:52:06.395Z,34.27
2022-11-06T23:54:11.318Z,28.70
2022-11-06T23:56:14.989Z,9.20
2022-11-06T23:58:18.201Z,12.10
